createdAt,value
2022-11-22T00:00:43.131Z,8.10
2022-11-22T00:03:17.326Z,7.80
2022-11-22T00:05:44.392Z,6.30
2022-11-22T00:08:11.394Z,6.30
2022-11-22T00:10:38.453Z,7.00
2022-11-22T00:13:05.459Z,7.30
2022-11-22T00:15:32.472Z,7.00
2022-11-22T00:17:59.477Z,7.10
2022-11-22T00:20:26.723Z,6.90
2022-11-22T00:22:53.643Z,7.80
2022-11-22T00:25:20.602Z,7.70
2022-11-22T00:27:47.550Z,7.70
2022-11-22T00:30:14.778Z,7.00
2022-11-22T00:32:41.898Z,6.10
2022-11-22T00:35:09.480Z,5.90
2022-11-22T00:37:36.375Z,7.00
2022-11-22T00:40:04.387Z,6.70
2022-11-22T00:42:31.567Z,6.40
2022-11-22T00:44:58.397Z,5.50
2022-11-22T00:47:25.323Z,5.70
2022-11-22T00:49:52.242Z,6.00
2022-11-22T00:52:19.030Z,6.10
2022-11-22T00:54:51.588Z,5.30
2022-11-22T00:57:22.386Z,6.10
2022-11-22T00:59:49.431Z,5.60
2022-11-22T01:02:16.877Z,6.90
2022-11-22T01:04:43.767Z,6.30
2022-11-22T01:07:11.282Z,6.60
2022-11-22T01:09:38.165Z,5.50
2022-11-22T01:12:05.301Z,4.70
2022-11-22T01:14:32.292Z,5.40
2022-11-22T01:16:59.112Z,4.90
2022-11-22T01:19:25.898Z,5.40
2022-11-22T01:21:52.849Z,6.10
2022-11-22T01:24:19.797Z,5.30
2022-11-22T01:26:46.766Z,5.10
2022-11-22T01:29:14.897Z,5.30
2022-11-22T01:31:41.875Z,5.90
2022-11-22T01:34:08.901Z,4.70
2022-11-22T01:36:36.040Z,5.80
2022-11-22T01:39:03.310Z,5.90
2022-11-22T01:41:30.416Z,6.20
2022-11-22T01:43:57.346Z,5.90
2022-11-22T01:46:37.008Z,5.90
2022-11-22T01:49:03.839Z,4.70
2022-11-22T01:52:02.563Z,5.90
2022-11-22T01:54:33.278Z,5.60
2022-11-22T01:57:06.213Z,6.60
2022-11-22T01:59:36.321Z,5.10
2022-11-22T02:02:03.902Z,6.10
2022-11-22T02:04:33.948Z,6.60
2022-11-22T02:07:16.809Z,6.30
2022-11-22T02:09:46.434Z,8.60
2022-11-22T02:12:16.794Z,7.30
2022-11-22T02:14:44.594Z,6.40
2022-11-22T02:17:11.581Z,6.70
2022-11-22T02:19:40.316Z,7.50
2022-11-22T02:22:31.984Z,6.00
2022-11-22T02:25:18.774Z,5.80
2022-11-22T02:27:46.085Z,6.80
2022-11-22T02:30:13.577Z,7.90
2022-11-22T02:32:40.599Z,8.20
2022-11-22T02:35:34.196Z,10.20
2022-11-22T02:38:07.862Z,8.40
2022-11-22T02:40:40.338Z,8.80
2022-11-22T02:43:18.249Z,8.10
2022-11-22T02:45:45.359Z,8.20
2022-11-22T02:48:15.084Z,7.10
2022-11-22T02:50:42.657Z,6.80
2022-11-22T02:53:10.775Z,7.20
2022-11-22T02:55:38.730Z,7.40
2022-11-22T02:58:06.209Z,7.30
2022-11-22T03:00:34.448Z,8.40
2022-11-22T03:03:01.676Z,8.20
2022-11-22T03:05:28.880Z,8.50
2022-11-22T03:07:55.963Z,7.40
2022-11-22T03:10:23.212Z,7.30
2022-11-22T03:12:50.302Z,6.90
2022-11-22T03:15:17.290Z,8.80
2022-11-22T03:17:44.256Z,7.80
2022-11-22T03:20:11.447Z,7.90
2022-11-22T03:22:38.315Z,8.70
2022-11-22T03:25:05.723Z,8.00
2022-11-22T03:27:32.921Z,8.00
2022-11-22T03:29:59.736Z,9.80
2022-11-22T03:32:26.881Z,8.20
2022-11-22T03:34:53.679Z,9.40
2022-11-22T03:37:20.787Z,7.10
2022-11-22T03:39:47.728Z,8.80
2022-11-22T03:42:21.002Z,8.00
2022-11-22T03:44:48.961Z,8.70
2022-11-22T03:47:15.789Z,9.20
2022-11-22T03:49:42.907Z,9.00
2022-11-22T03:52:10.099Z,9.20
2022-11-22T03:54:37.215Z,8.70
2022-11-22T03:57:05.184Z,7.60
2022-11-22T03:59:32.591Z,8.00
2022-11-22T04:01:59.762Z,9.10
2022-11-22T04:04:27.120Z,10.50
2022-11-22T04:06:54.410Z,10.50
2022-11-22T04:09:21.641Z,9.50
2022-11-22T04:11:48.518Z,8.80
2022-11-22T04:14:34.187Z,9.30
2022-11-22T04:17:01.211Z,9.10
2022-11-22T04:19:28.296Z,8.00
2022-11-22T04:21:55.481Z,8.50
2022-11-22T04:24:41.280Z,9.10
2022-11-22T04:27:08.101Z,9.40
2022-11-22T04:29:35.029Z,9.10
2022-11-22T04:32:20.789Z,7.40
2022-11-22T04:34:47.950Z,9.80
2022-11-22T04:37:14.924Z,10.70
2022-11-22T04:39:41.723Z,8.10
2022-11-22T04:42:27.892Z,8.80
2022-11-22T04:44:56.070Z,8.90
2022-11-22T04:47:44.880Z,9.30
2022-11-22T04:50:33.076Z,8.50
2022-11-22T04:53:00.026Z,7.90
2022-11-22T04:55:27.081Z,9.20
2022-11-22T04:57:59.123Z,9.30
2022-11-22T05:00:28.673Z,7.90
2022-11-22T05:02:56.956Z,8.50
2022-11-22T05:05:24.748Z,8.10
2022-11-22T05:07:52.040Z,8.00
2022-11-22T05:10:25.777Z,8.80
2022-11-22T05:12:54.460Z,6.90
2022-11-22T05:15:21.405Z,8.90
2022-11-22T05:17:48.857Z,8.50
2022-11-22T05:20:15.932Z,11.80
2022-11-22T05:23:01.630Z,12.40
2022-11-22T05:25:28.580Z,11.90
2022-11-22T05:27:55.626Z,11.60
2022-11-22T05:30:22.780Z,10.20
2022-11-22T05:32:49.697Z,10.10
2022-11-22T05:35:16.889Z,10.40
2022-11-22T05:37:43.751Z,11.20
2022-11-22T05:40:11.364Z,10.70
2022-11-22T05:42:38.321Z,9.90
2022-11-22T05:45:05.712Z,10.20
2022-11-22T05:47:36.202Z,12.90
2022-11-22T05:50:03.717Z,12.90
2022-11-22T05:52:30.738Z,12.10
2022-11-22T05:54:57.834Z,9.70
2022-11-22T05:57:24.912Z,11.40
2022-11-22T05:59:52.271Z,9.20
2022-11-22T06:02:19.301Z,10.80
2022-11-22T06:04:46.639Z,9.30
2022-11-22T06:07:13.761Z,10.30
2022-11-22T06:09:40.824Z,8.40
2022-11-22T06:12:08.352Z,9.90
2022-11-22T06:14:39.935Z,9.40
2022-11-22T06:17:09.930Z,9.00
2022-11-22T06:19:36.806Z,10.10
2022-11-22T06:22:03.895Z,9.90
2022-11-22T06:24:30.882Z,10.80
2022-11-22T06:26:57.893Z,11.00
2022-11-22T06:29:24.742Z,10.40
2022-11-22T06:31:51.661Z,11.30
2022-11-22T06:34:18.559Z,10.10
2022-11-22T06:36:46.276Z,10.80
2022-11-22T06:39:13.542Z,9.90
2022-11-22T06:41:40.516Z,9.40
2022-11-22T06:44:09.232Z,9.80
2022-11-22T06:46:37.156Z,10.20
2022-11-22T06:49:04.359Z,11.40
2022-11-22T06:51:32.877Z,10.70
2022-11-22T06:54:00.058Z,10.10
2022-11-22T06:56:30.311Z,13.30
2022-11-22T06:58:57.889Z,10.80
2022-11-22T07:01:27.704Z,12.70
2022-11-22T07:03:57.789Z,10.70
2022-11-22T07:06:34.670Z,11.00
2022-11-22T07:09:04.306Z,10.00
2022-11-22T07:11:31.508Z,11.10
2022-11-22T07:14:07.106Z,12.40
2022-11-22T07:16:36.898Z,9.60
2022-11-22T07:19:04.467Z,10.80
2022-11-22T07:21:31.954Z,8.40
2022-11-22T07:23:59.107Z,7.80
2022-11-22T07:26:26.459Z,10.30
2022-11-22T07:28:53.441Z,9.10
2022-11-22T07:31:20.710Z,10.50
2022-11-22T07:33:48.469Z,10.40
2022-11-22T07:36:20.930Z,10.00
2022-11-22T07:38:48.926Z,8.80
2022-11-22T07:41:17.521Z,9.10
2022-11-22T07:43:45.695Z,9.70
2022-11-22T07:46:30.689Z,9.70
2022-11-22T07:48:57.770Z,10.70
2022-11-22T07:51:25.392Z,9.40
2022-11-22T07:53:53.364Z,12.90
2022-11-22T07:56:20.582Z,10.50
2022-11-22T07:58:47.508Z,12.90
2022-11-22T08:01:16.705Z,14.70
2022-11-22T08:03:45.148Z,11.00
2022-11-22T08:06:13.308Z,13.60
2022-11-22T08:08:40.640Z,15.60
2022-11-22T08:11:08.601Z,16.10
2022-11-22T08:13:36.237Z,15.50
2022-11-22T08:16:06.335Z,14.10
2022-11-22T08:18:35.293Z,16.50
2022-11-22T08:21:07.708Z,20.40
2022-11-22T08:23:35.415Z,16.80
2022-11-22T08:26:03.709Z,17.30
2022-11-22T08:28:31.396Z,16.00
2022-11-22T08:31:04.251Z,13.50
2022-11-22T08:33:31.406Z,14.60
2022-11-22T08:35:58.254Z,16.40
2022-11-22T08:38:26.003Z,13.10
2022-11-22T08:40:53.264Z,18.30
2022-11-22T08:43:20.309Z,19.50
2022-11-22T08:45:56.725Z,18.60
2022-11-22T08:48:28.079Z,15.80
2022-11-22T08:51:00.879Z,15.10
2022-11-22T08:53:29.484Z,13.40
2022-11-22T08:55:59.314Z,15.60
2022-11-22T08:58:26.393Z,15.90
2022-11-22T09:00:53.232Z,17.70
2022-11-22T09:03:20.128Z,20.00
2022-11-22T09:08:36.368Z,22.30
2022-11-22T09:11:08.724Z,20.60
2022-11-22T09:13:36.101Z,18.80
2022-11-22T09:16:08.477Z,18.90
2022-11-22T09:18:35.734Z,15.50
2022-11-22T09:21:04.731Z,16.20
2022-11-22T09:23:31.941Z,17.60
2022-11-22T09:26:00.788Z,16.70
2022-11-22T09:28:28.315Z,16.50
2022-11-22T09:31:03.611Z,15.00
2022-11-22T09:33:31.340Z,17.70
2022-11-22T09:36:10.262Z,16.90
2022-11-22T09:38:37.619Z,18.70
2022-11-22T09:41:16.873Z,18.00
2022-11-22T09:44:17.302Z,15.70
2022-11-22T09:47:03.217Z,17.10
2022-11-22T09:49:57.470Z,15.90
2022-11-22T09:52:52.654Z,13.90
2022-11-22T09:55:32.388Z,15.10
2022-11-22T09:58:17.948Z,15.30
2022-11-22T10:00:50.711Z,15.30
2022-11-22T10:03:39.171Z,14.10
2022-11-22T10:06:12.549Z,14.60
2022-11-22T10:08:41.915Z,15.90
2022-11-22T10:11:40.630Z,14.80
2022-11-22T10:14:46.140Z,12.30
2022-11-22T10:17:20.464Z,12.60
2022-11-22T10:20:15.613Z,12.40
2022-11-22T10:22:42.899Z,12.60
2022-11-22T10:25:14.663Z,13.80
2022-11-22T10:27:42.993Z,11.60
2022-11-22T10:30:36.006Z,10.90
2022-11-22T10:33:09.422Z,11.70
2022-11-22T10:35:58.032Z,11.70
2022-11-22T10:38:46.419Z,11.10
2022-11-22T10:41:16.388Z,11.50
2022-11-22T10:43:55.312Z,12.70
2022-11-22T10:46:34.991Z,13.60
2022-11-22T10:49:13.544Z,13.90
2022-11-22T10:52:22.166Z,12.40
2022-11-22T10:55:21.848Z,13.40
2022-11-22T10:57:58.851Z,13.10
2022-11-22T11:00:29.267Z,12.20
2022-11-22T11:03:23.873Z,12.00
2022-11-22T11:06:26.635Z,12.90
2022-11-22T11:10:09.112Z,12.50
2022-11-22T11:12:31.815Z,13.50
2022-11-22T11:15:06.126Z,13.70
2022-11-22T11:17:37.802Z,13.60
2022-11-22T11:20:16.601Z,12.90
2022-11-22T11:25:30.361Z,12.70
2022-11-22T11:28:02.425Z,13.20
2022-11-22T11:30:37.740Z,11.70
2022-11-22T11:33:17.441Z,12.50
2022-11-22T11:35:46.479Z,12.70
2022-11-22T11:38:37.247Z,13.40
2022-11-22T11:41:24.391Z,12.70
2022-11-22T11:43:54.057Z,12.30
2022-11-22T11:46:23.485Z,11.90
2022-11-22T11:48:52.675Z,12.30
2022-11-22T11:51:37.018Z,12.50
2022-11-22T11:54:29.556Z,14.80
2022-11-22T11:57:04.091Z,11.90
2022-11-22T11:59:36.949Z,12.80
2022-11-22T12:02:16.639Z,10.50
2022-11-22T12:04:52.104Z,13.00
2022-11-22T12:07:40.857Z,10.70
2022-11-22T12:10:55.156Z,12.20
2022-11-22T12:13:31.121Z,13.60
2022-11-22T12:16:01.969Z,13.80
2022-11-22T12:18:38.772Z,12.00
2022-11-22T12:21:17.549Z,12.70
2022-11-22T12:24:42.812Z,12.60
2022-11-22T12:27:00.908Z,13.60
2022-11-22T12:29:27.838Z,13.30
2022-11-22T12:32:06.110Z,13.90
2022-11-22T12:34:39.956Z,14.50
2022-11-22T12:37:16.871Z,41.30
2022-11-22T12:39:56.425Z,22.50
2022-11-22T12:42:41.523Z,13.40
2022-11-22T12:45:20.535Z,13.50
2022-11-22T12:47:49.652Z,13.00
2022-11-22T12:50:50.015Z,14.70
2022-11-22T12:53:47.990Z,14.60
2022-11-22T12:56:22.237Z,15.60
2022-11-22T12:59:00.437Z,15.80
2022-11-22T13:01:39.162Z,15.90
2022-11-22T13:04:08.698Z,16.70
2022-11-22T13:06:53.287Z,20.70
2022-11-22T13:09:34.499Z,20.90
2022-11-22T13:12:09.544Z,24.60
2022-11-22T13:14:51.916Z,23.50
2022-11-22T13:17:19.996Z,18.10
2022-11-22T13:19:52.680Z,25.70
2022-11-22T13:22:55.690Z,23.10
2022-11-22T13:25:56.933Z,23.10
2022-11-22T13:28:32.121Z,29.80
2022-11-22T13:31:06.192Z,32.60
2022-11-22T13:36:23.979Z,25.40
2022-11-22T13:38:56.164Z,27.40
2022-11-22T13:41:30.669Z,26.50
2022-11-22T13:44:15.149Z,26.00
2022-11-22T13:49:36.880Z,36.30
2022-11-22T13:52:28.011Z,27.90
2022-11-22T13:54:57.876Z,34.20
2022-11-22T13:57:38.969Z,36.90
2022-11-22T14:00:13.898Z,39.70
2022-11-22T14:02:46.232Z,34.40
2022-11-22T14:05:38.023Z,27.80
2022-11-22T14:08:36.873Z,27.00
2022-11-22T14:11:44.669Z,27.70
2022-11-22T14:14:17.486Z,20.30
2022-11-22T14:16:47.335Z,17.10
2022-11-22T14:19:41.862Z,23.50
2022-11-22T14:22:18.672Z,24.50
2022-11-22T14:25:24.381Z,24.50
2022-11-22T14:28:02.355Z,24.00
2022-11-22T14:30:37.982Z,19.40
2022-11-22T14:33:14.824Z,19.10
2022-11-22T14:36:21.846Z,25.60
2022-11-22T14:38:48.682Z,46.20
2022-11-22T14:41:28.021Z,49.90
2022-11-22T14:44:11.624Z,57.40
2022-11-22T14:47:17.565Z,46.90
2022-11-22T14:49:49.260Z,35.60
2022-11-22T14:52:31.272Z,52.50
2022-11-22T14:55:05.588Z,77.20
2022-11-22T14:57:36.284Z,73.30
2022-11-22T15:00:23.303Z,64.40
2022-11-22T15:03:14.610Z,30.70
2022-11-22T15:09:11.060Z,57.20
2022-11-22T15:09:42.204Z,49.10
2022-11-22T15:12:06.271Z,35.90
2022-11-22T15:58:11.941Z,33.10
2022-11-22T16:00:43.379Z,42.20
2022-11-22T16:03:24.528Z,55.10
2022-11-22T16:06:08.612Z,70.50
2022-11-22T16:08:38.657Z,52.70
2022-11-22T16:11:05.765Z,51.20
2022-11-22T16:13:35.360Z,36.00
2022-11-22T16:16:10.635Z,41.00
2022-11-22T16:18:39.474Z,39.00
2022-11-22T16:21:20.845Z,32.80
2022-11-22T16:24:07.813Z,33.70
2022-11-22T16:26:35.014Z,30.00
2022-11-22T16:29:25.689Z,29.20
2022-11-22T16:32:04.991Z,25.40
2022-11-22T16:34:32.261Z,38.30
2022-11-22T16:36:59.188Z,30.80
2022-11-22T16:39:26.017Z,27.50
2022-11-22T16:41:52.827Z,33.40
2022-11-22T16:44:21.084Z,40.10
2022-11-22T16:46:48.023Z,36.70
2022-11-22T16:49:20.218Z,30.90
2022-11-22T16:51:49.576Z,33.60
2022-11-22T16:54:20.972Z,31.10
2022-11-22T16:56:47.815Z,32.70
2022-11-22T16:59:15.343Z,47.20
2022-11-22T17:01:43.482Z,43.50
2022-11-22T17:04:23.230Z,43.70
2022-11-22T17:06:51.423Z,40.30
2022-11-22T17:09:18.847Z,32.00
2022-11-22T17:11:46.394Z,31.10
2022-11-22T17:14:18.183Z,32.60
2022-11-22T17:16:46.163Z,35.20
2022-11-22T17:22:00.408Z,34.20
2022-11-22T17:24:27.291Z,34.10
2022-11-22T17:26:54.056Z,34.00
2022-11-22T17:32:13.880Z,43.40
2022-11-22T17:34:40.876Z,43.30
2022-11-22T17:37:13.237Z,34.30
2022-11-22T17:39:40.551Z,30.10
2022-11-22T17:42:07.628Z,31.50
2022-11-22T17:44:34.452Z,28.40
2022-11-22T17:47:01.304Z,25.90
2022-11-22T17:49:28.561Z,21.90
2022-11-22T17:51:55.740Z,34.40
2022-11-22T17:54:22.540Z,27.60
2022-11-22T17:56:49.398Z,30.10
2022-11-22T17:59:16.198Z,32.30
2022-11-22T18:01:43.007Z,36.40
2022-11-22T18:04:10.089Z,29.90
2022-11-22T18:06:37.057Z,34.70
2022-11-22T18:09:03.883Z,35.60
2022-11-22T18:11:31.056Z,31.00
2022-11-22T18:13:57.834Z,32.00
2022-11-22T18:16:30.903Z,31.00
2022-11-22T18:18:59.890Z,37.40
2022-11-22T18:21:34.337Z,27.70
2022-11-22T18:24:01.552Z,29.30
2022-11-22T18:26:39.205Z,25.00
2022-11-22T18:31:55.503Z,21.50
2022-11-22T18:34:22.875Z,23.10
2022-11-22T18:36:55.852Z,22.10
2022-11-22T18:39:24.751Z,18.50
2022-11-22T18:41:51.597Z,17.50
2022-11-22T18:44:18.509Z,22.60
2022-11-22T18:46:46.279Z,23.30
2022-11-22T18:49:13.148Z,21.50
2022-11-22T18:51:39.897Z,21.50
2022-11-22T18:54:09.495Z,20.80
2022-11-22T18:56:39.283Z,21.00
2022-11-22T18:59:07.551Z,23.70
2022-11-22T19:01:34.741Z,22.80
2022-11-22T19:04:02.491Z,22.90
2022-11-22T19:06:29.759Z,23.00
2022-11-22T19:08:57.189Z,27.30
2022-11-22T19:11:24.838Z,41.50
2022-11-22T19:13:51.928Z,32.30
2022-11-22T19:16:21.327Z,28.30
2022-11-22T19:18:49.195Z,29.20
2022-11-22T19:21:18.243Z,24.70
2022-11-22T19:23:45.445Z,23.70
2022-11-22T19:26:14.574Z,22.80
2022-11-22T19:28:42.543Z,22.70
2022-11-22T19:31:11.839Z,18.60
2022-11-22T19:33:39.310Z,24.80
2022-11-22T19:36:11.492Z,26.80
2022-11-22T19:38:39.158Z,31.10
2022-11-22T19:41:10.526Z,43.90
2022-11-22T19:43:38.263Z,39.80
2022-11-22T19:46:06.085Z,31.00
2022-11-22T19:51:29.017Z,32.00
2022-11-22T19:54:02.257Z,26.00
2022-11-22T19:56:34.531Z,25.80
2022-11-22T19:59:04.375Z,27.90
2022-11-22T20:01:34.178Z,27.70
2022-11-22T20:04:05.861Z,23.10
2022-11-22T20:06:34.828Z,27.70
2022-11-22T20:09:05.931Z,31.30
2022-11-22T20:11:32.909Z,30.20
2022-11-22T20:13:59.751Z,28.30
2022-11-22T20:16:28.500Z,21.20
2022-11-22T20:18:57.177Z,18.30
2022-11-22T20:21:25.506Z,20.00
2022-11-22T20:23:52.897Z,22.30
2022-11-22T20:26:20.615Z,20.60
2022-11-22T20:28:53.146Z,17.20
2022-11-22T20:31:20.463Z,18.80
2022-11-22T20:33:50.514Z,19.10
2022-11-22T20:36:23.641Z,22.60
2022-11-22T20:38:51.049Z,21.90
2022-11-22T20:41:20.617Z,21.40
2022-11-22T20:43:49.117Z,21.90
2022-11-22T20:46:19.459Z,20.00
2022-11-22T20:48:47.856Z,22.50
2022-11-22T20:51:18.143Z,21.10
2022-11-22T20:53:45.664Z,21.60
2022-11-22T20:56:13.451Z,20.80
2022-11-22T20:58:40.906Z,19.30
2022-11-22T21:01:11.591Z,19.00
2022-11-22T21:03:38.410Z,20.80
2022-11-22T21:06:05.750Z,22.90
2022-11-22T21:08:34.527Z,32.00
2022-11-22T21:11:13.788Z,26.30
2022-11-22T21:13:41.703Z,28.40
2022-11-22T21:16:22.712Z,21.80
2022-11-22T21:18:53.521Z,22.00
2022-11-22T21:21:24.350Z,19.80
2022-11-22T21:23:54.823Z,19.20
2022-11-22T21:26:23.275Z,19.50
2022-11-22T21:28:50.665Z,21.50
2022-11-22T21:31:18.291Z,20.80
2022-11-22T21:33:45.333Z,21.40
2022-11-22T21:36:13.222Z,17.40
2022-11-22T21:38:40.043Z,19.20
2022-11-22T21:41:38.079Z,20.80
2022-11-22T21:43:58.522Z,19.80
2022-11-22T21:46:25.308Z,18.40
2022-11-22T21:48:52.301Z,17.60
2022-11-22T21:51:19.155Z,17.10
2022-11-22T21:53:45.961Z,15.90
2022-11-22T21:56:12.899Z,15.50
2022-11-22T21:58:39.699Z,19.10
2022-11-22T22:01:12.391Z,16.10
2022-11-22T22:03:40.993Z,16.80
2022-11-22T22:06:08.867Z,16.80
2022-11-22T22:08:35.816Z,15.80
2022-11-22T22:11:04.624Z,16.80
2022-11-22T22:13:31.724Z,22.00
2022-11-22T22:16:00.762Z,16.50
2022-11-22T22:18:35.087Z,19.10
2022-11-22T22:21:04.795Z,15.40
2022-11-22T22:23:33.548Z,17.30
2022-11-22T22:26:02.839Z,15.80
2022-11-22T22:28:31.658Z,17.50
2022-11-22T22:31:21.965Z,17.20
2022-11-22T22:33:52.639Z,18.00
2022-11-22T22:36:20.418Z,17.90
2022-11-22T22:38:47.659Z,17.20
2022-11-22T22:41:15.127Z,16.10
2022-11-22T22:43:44.625Z,18.50
2022-11-22T22:46:15.181Z,27.50
2022-11-22T22:48:43.101Z,27.00
2022-11-22T22:51:21.054Z,28.70
2022-11-22T22:53:48.590Z,19.30
2022-11-22T22:56:18.926Z,20.50
2022-11-22T22:58:46.105Z,21.00
2022-11-22T23:01:20.912Z,22.90
2022-11-22T23:03:52.892Z,21.40
2022-11-22T23:06:20.844Z,17.90
2022-11-22T23:08:49.630Z,21.10
2022-11-22T23:11:19.667Z,20.70
2022-11-22T23:13:46.430Z,18.50
2022-11-22T23:16:14.379Z,19.20
2022-11-22T23:18:44.398Z,20.20
2022-11-22T23:21:14.125Z,17.50
2022-11-22T23:23:40.941Z,18.00
2022-11-22T23:26:10.686Z,15.20
2022-11-22T23:28:37.702Z,14.10
2022-11-22T23:31:13.011Z,13.90
2022-11-22T23:33:41.158Z,13.70
2022-11-22T23:36:11.518Z,16.40
2022-11-22T23:38:38.776Z,13.30
2022-11-22T23:41:06.066Z,14.90
2022-11-22T23:43:32.885Z,11.30
2022-11-22T23:45:59.836Z,14.30
2022-11-22T23:48:27.275Z,17.20
2022-11-22T23:50:54.444Z,14.20
2022-11-22T23:53:21.461Z,17.40
2022-11-22T23:55:48.272Z,14.50
2022-11-22T23:58:15.072Z,14.20
